Lake Cowichan, Canada
Current Conditions -  °F | °C
As of 11:00 AM on Tuesday 27 Jan 2015 (Local Time) from CYCD Reporting Station
Haze Haze  
Wind Chill: 46°   Ceiling: 1000
Heat Index: 46°   Visibility: 1.2mi
Dew Point: 46°   Wind: 0mph
Humidity: 100%   Direction: NA
Pressure: 30.05"   Gusts: NA
Location:  48.82°N, 124.03°W
Report Text: CYCD 271900Z 00000KT 1 1/4SM BR FEW003 BKN010 08/08 A3005 RMK SF2SC3 SLP175
Loading
Personal Weather Stations






























Interactive Weather Map New forecast layout! Learn more

10-Day Weather Forecast

Advertisements
Track Severe Weather on mobile